EJU965Z LFPG-LFMN
Flight info
| Callsign | EJU965Z |
|---|---|
| Flight time | 1h 14m |
| Altitude | 37000 |
| Route | LATRA DCT LAMUT DCT UTUVA DCT LERGA DCT LIQID DCT LATAM DCT TUNUR DCT NISAR |
| Aircraft | A21N/M-SDE2E3FGHIRWXY/LB1 |
Departure
| Time | 2026-04-30 21:18 |
|---|---|
| Airport | Charles de Gaulle International Airport (LFPG) |
Arrival
| Time | 2026-04-30 22:33 |
|---|---|
| Airport | Nice-Côte d'Azur Airport (LFMN) |
| Time | Latitude | Longitude | Altitude | Speed | Heading |
|---|---|---|---|---|---|
| 2026-04-30 20:40 | 49.00569 | 2.56661 | 333 ft | 0 kts | 177° |
| 2026-04-30 20:44 | 49.00570 | 2.56661 | 333 ft | 0 kts | 177° |
| 2026-04-30 20:45 | 49.00569 | 2.56661 | 333 ft | 0 kts | 177° |
| 2026-04-30 21:04 | 49.00588 | 2.56661 | 364 ft | 4 kts | 185° |
| 2026-04-30 21:04 | 49.00633 | 2.56694 | 361 ft | 4 kts | 243° |
| 2026-04-30 21:05 | 49.00638 | 2.56716 | 366 ft | 1 kts | 267° |
| 2026-04-30 21:09 | 49.00637 | 2.56714 | 360 ft | 1 kts | 267° |
| 2026-04-30 21:09 | 49.00637 | 2.56686 | 366 ft | 4 kts | 267° |
| 2026-04-30 21:09 | 49.00635 | 2.56622 | 366 ft | 8 kts | 267° |
| 2026-04-30 21:10 | 49.00630 | 2.56523 | 360 ft | 11 kts | 265° |
| 2026-04-30 21:10 | 49.00623 | 2.56389 | 366 ft | 14 kts | 265° |
| 2026-04-30 21:10 | 49.00615 | 2.56226 | 360 ft | 16 kts | 265° |
| 2026-04-30 21:10 | 49.00600 | 2.56063 | 361 ft | 13 kts | 251° |
| 2026-04-30 21:11 | 49.00572 | 2.55916 | 362 ft | 15 kts | 263° |
| 2026-04-30 21:11 | 49.00568 | 2.55832 | 363 ft | 8 kts | 266° |
| 2026-04-30 21:11 | 49.00563 | 2.55730 | 367 ft | 11 kts | 264° |
| 2026-04-30 21:11 | 49.00556 | 2.55608 | 360 ft | 13 kts | 265° |
| 2026-04-30 21:12 | 49.00549 | 2.55491 | 362 ft | 10 kts | 265° |
| 2026-04-30 21:12 | 49.00524 | 2.55381 | 361 ft | 12 kts | 228° |
| 2026-04-30 21:12 | 49.00440 | 2.55336 | 363 ft | 14 kts | 172° |
| 2026-04-30 21:12 | 49.00341 | 2.55375 | 362 ft | 14 kts | 164° |
| 2026-04-30 21:13 | 49.00277 | 2.55402 | 361 ft | 15 kts | 164° |
| 2026-04-30 21:13 | 49.00175 | 2.55447 | 365 ft | 17 kts | 164° |
| 2026-04-30 21:13 | 49.00074 | 2.55491 | 365 ft | 13 kts | 165° |
| 2026-04-30 21:13 | 48.99996 | 2.55525 | 363 ft | 11 kts | 164° |
| 2026-04-30 21:14 | 48.99916 | 2.55568 | 366 ft | 13 kts | 150° |
| 2026-04-30 21:14 | 48.99853 | 2.55665 | 360 ft | 11 kts | 118° |
| 2026-04-30 21:14 | 48.99826 | 2.55769 | 362 ft | 8 kts | 120° |
| 2026-04-30 21:14 | 48.99807 | 2.55793 | 360 ft | 0 kts | 153° |
| 2026-04-30 21:15 | 48.99804 | 2.55795 | 360 ft | 2 kts | 159° |
| 2026-04-30 21:15 | 48.99785 | 2.55803 | 365 ft | 4 kts | 172° |
| 2026-04-30 21:15 | 48.99744 | 2.55808 | 361 ft | 7 kts | 175° |
| 2026-04-30 21:15 | 48.99684 | 2.55816 | 360 ft | 10 kts | 175° |
| 2026-04-30 21:16 | 48.99616 | 2.55853 | 360 ft | 9 kts | 134° |
| 2026-04-30 21:16 | 48.99605 | 2.55918 | 359 ft | 0 kts | 86° |
| 2026-04-30 21:17 | 48.99606 | 2.55951 | 359 ft | 16 kts | 86° |
| 2026-04-30 21:18 | 48.99636 | 2.56517 | 361 ft | 89 kts | 84° |
| 2026-04-30 21:18 | 48.99703 | 2.57763 | 365 ft | 144 kts | 85° |
| 2026-04-30 21:18 | 48.99790 | 2.59467 | 604 ft | 165 kts | 85° |
| 2026-04-30 21:18 | 48.99871 | 2.61200 | 1305 ft | 167 kts | 88° |
| 2026-04-30 21:19 | 48.99964 | 2.63045 | 1849 ft | 182 kts | 90° |
| 2026-04-30 21:19 | 49.00059 | 2.65051 | 2493 ft | 200 kts | 91° |
| 2026-04-30 21:19 | 49.00158 | 2.67296 | 3015 ft | 228 kts | 90° |
| 2026-04-30 21:19 | 49.00289 | 2.69848 | 3541 ft | 254 kts | 89° |
| 2026-04-30 21:20 | 49.00439 | 2.72589 | 4388 ft | 264 kts | 87° |
| 2026-04-30 21:20 | 49.00594 | 2.75447 | 5214 ft | 277 kts | 86° |
| 2026-04-30 21:20 | 49.00742 | 2.78395 | 6190 ft | 280 kts | 89° |
| 2026-04-30 21:20 | 49.00551 | 2.81337 | 7208 ft | 280 kts | 101° |
| 2026-04-30 21:21 | 49.00200 | 2.84257 | 8251 ft | 281 kts | 102° |
| 2026-04-30 21:21 | 48.99843 | 2.87184 | 9343 ft | 282 kts | 101° |
| 2026-04-30 21:21 | 48.99134 | 2.93174 | 10967 ft | 303 kts | 101° |
| 2026-04-30 21:22 | 48.98755 | 2.96425 | 11550 ft | 318 kts | 101° |
| 2026-04-30 21:22 | 48.94849 | 3.04291 | 14249 ft | 331 kts | 154° |
| 2026-04-30 21:23 | 48.92599 | 3.05150 | 15043 ft | 339 kts | 174° |
| 2026-04-30 21:23 | 48.90229 | 3.04779 | 15820 ft | 349 kts | 193° |
| 2026-04-30 21:23 | 48.86292 | 3.00375 | 17384 ft | 368 kts | 234° |
| 2026-04-30 21:24 | 48.85059 | 2.96925 | 18142 ft | 375 kts | 242° |
| 2026-04-30 21:24 | 48.83910 | 2.93335 | 18787 ft | 381 kts | 241° |
| 2026-04-30 21:24 | 48.82742 | 2.89771 | 19108 ft | 383 kts | 240° |
| 2026-04-30 21:24 | 48.81526 | 2.86165 | 19213 ft | 384 kts | 240° |
| 2026-04-30 21:25 | 48.79048 | 2.78998 | 19230 ft | 384 kts | 239° |
| 2026-04-30 21:25 | 48.77799 | 2.75424 | 19213 ft | 383 kts | 239° |
| 2026-04-30 21:25 | 48.76549 | 2.71850 | 19211 ft | 383 kts | 239° |
| 2026-04-30 21:26 | 48.74043 | 2.64708 | 19201 ft | 384 kts | 239° |
| 2026-04-30 21:26 | 48.72728 | 2.61201 | 19201 ft | 382 kts | 233° |
| 2026-04-30 21:27 | 48.68860 | 2.56010 | 19425 ft | 371 kts | 207° |
| 2026-04-30 21:27 | 48.66608 | 2.54042 | 20040 ft | 375 kts | 206° |
| 2026-04-30 21:27 | 48.64339 | 2.52076 | 20749 ft | 378 kts | 206° |
| 2026-04-30 21:28 | 48.59763 | 2.48048 | 22146 ft | 384 kts | 207° |
| 2026-04-30 21:28 | 48.57451 | 2.45998 | 22827 ft | 387 kts | 207° |
| 2026-04-30 21:28 | 48.52763 | 2.41866 | 24082 ft | 393 kts | 205° |
| 2026-04-30 21:29 | 48.50266 | 2.40237 | 24609 ft | 391 kts | 194° |
| 2026-04-30 21:29 | 48.42196 | 2.39746 | 26161 ft | 392 kts | 174° |
| 2026-04-30 21:30 | 48.36711 | 2.40236 | 27147 ft | 398 kts | 174° |
| 2026-04-30 21:31 | 48.28393 | 2.41183 | 28545 ft | 404 kts | 166° |
| 2026-04-30 21:31 | 48.23034 | 2.43785 | 29452 ft | 407 kts | 158° |
| 2026-04-30 21:32 | 48.17673 | 2.46715 | 30295 ft | 413 kts | 159° |
| 2026-04-30 21:32 | 48.14955 | 2.48158 | 30640 ft | 416 kts | 159° |
| 2026-04-30 21:32 | 48.13145 | 2.49109 | 30865 ft | 417 kts | 159° |
| 2026-04-30 21:32 | 48.10394 | 2.50554 | 31210 ft | 420 kts | 159° |
| 2026-04-30 21:33 | 48.06683 | 2.52464 | 31630 ft | 425 kts | 160° |
| 2026-04-30 21:33 | 48.01933 | 2.54819 | 32058 ft | 431 kts | 160° |
| 2026-04-30 21:33 | 47.99125 | 2.56202 | 32492 ft | 430 kts | 160° |
| 2026-04-30 21:34 | 47.96245 | 2.57619 | 32914 ft | 430 kts | 160° |
| 2026-04-30 21:34 | 47.90606 | 2.60392 | 33695 ft | 429 kts | 160° |
| 2026-04-30 21:34 | 47.87773 | 2.61780 | 34070 ft | 429 kts | 160° |
| 2026-04-30 21:35 | 47.84939 | 2.63170 | 34400 ft | 428 kts | 160° |
| 2026-04-30 21:35 | 47.82107 | 2.64555 | 34680 ft | 429 kts | 160° |
| 2026-04-30 21:35 | 47.79271 | 2.65938 | 34948 ft | 429 kts | 160° |
| 2026-04-30 21:35 | 47.76429 | 2.67325 | 35212 ft | 430 kts | 161° |
| 2026-04-30 21:36 | 47.73583 | 2.68716 | 35432 ft | 432 kts | 161° |
| 2026-04-30 21:36 | 47.70725 | 2.70111 | 35664 ft | 433 kts | 161° |
| 2026-04-30 21:37 | 47.62133 | 2.74291 | 36396 ft | 434 kts | 161° |
| 2026-04-30 21:37 | 47.59259 | 2.75680 | 36639 ft | 434 kts | 161° |
| 2026-04-30 21:37 | 47.56386 | 2.77066 | 36875 ft | 435 kts | 161° |
| 2026-04-30 21:37 | 47.53512 | 2.78454 | 37093 ft | 435 kts | 161° |
| 2026-04-30 21:38 | 47.50631 | 2.79846 | 37218 ft | 435 kts | 161° |
| 2026-04-30 21:38 | 47.47752 | 2.81236 | 37222 ft | 435 kts | 161° |
| 2026-04-30 21:38 | 47.42001 | 2.84006 | 37192 ft | 436 kts | 161° |
| 2026-04-30 21:39 | 47.36234 | 2.86779 | 37186 ft | 435 kts | 161° |
| 2026-04-30 21:39 | 47.30470 | 2.89547 | 37185 ft | 436 kts | 162° |
| 2026-04-30 21:40 | 47.24688 | 2.92320 | 37187 ft | 438 kts | 161° |
| 2026-04-30 21:40 | 47.18895 | 2.95091 | 37187 ft | 438 kts | 162° |
| 2026-04-30 21:41 | 47.13100 | 2.97850 | 37188 ft | 438 kts | 162° |
| 2026-04-30 21:41 | 47.07255 | 3.00348 | 37192 ft | 438 kts | 164° |
| 2026-04-30 21:42 | 47.01389 | 3.02761 | 37192 ft | 437 kts | 164° |
| 2026-04-30 21:42 | 46.95564 | 3.05151 | 37192 ft | 438 kts | 164° |
| 2026-04-30 21:43 | 46.89699 | 3.07559 | 37195 ft | 438 kts | 164° |
| 2026-04-30 21:43 | 46.83829 | 3.09957 | 37200 ft | 437 kts | 164° |
| 2026-04-30 21:44 | 46.77967 | 3.12356 | 37201 ft | 437 kts | 164° |
| 2026-04-30 21:44 | 46.72106 | 3.14749 | 37200 ft | 437 kts | 164° |
| 2026-04-30 21:45 | 46.66241 | 3.17131 | 37201 ft | 437 kts | 164° |
| 2026-04-30 21:45 | 46.60381 | 3.19502 | 37201 ft | 437 kts | 164° |
| 2026-04-30 21:46 | 46.54515 | 3.21875 | 37205 ft | 437 kts | 164° |
| 2026-04-30 21:46 | 46.48643 | 3.24246 | 37206 ft | 439 kts | 165° |
| 2026-04-30 21:47 | 46.42756 | 3.26617 | 37206 ft | 439 kts | 165° |
| 2026-04-30 21:47 | 46.36870 | 3.28988 | 37205 ft | 439 kts | 165° |
| 2026-04-30 21:48 | 46.30989 | 3.31344 | 37208 ft | 439 kts | 165° |
| 2026-04-30 21:48 | 46.25094 | 3.33706 | 37208 ft | 440 kts | 165° |
| 2026-04-30 21:49 | 46.19231 | 3.36055 | 37208 ft | 440 kts | 165° |
| 2026-04-30 21:49 | 46.13332 | 3.38403 | 37206 ft | 440 kts | 165° |
| 2026-04-30 21:50 | 46.07425 | 3.40745 | 37209 ft | 441 kts | 165° |
| 2026-04-30 21:50 | 46.01508 | 3.43085 | 37212 ft | 441 kts | 165° |
| 2026-04-30 21:51 | 45.95590 | 3.45428 | 37217 ft | 441 kts | 165° |
| 2026-04-30 21:51 | 45.89668 | 3.47770 | 37224 ft | 442 kts | 166° |
| 2026-04-30 21:52 | 45.83755 | 3.50193 | 37226 ft | 442 kts | 164° |
| 2026-04-30 21:52 | 45.77868 | 3.52737 | 37225 ft | 442 kts | 164° |
| 2026-04-30 21:53 | 45.71977 | 3.55288 | 37223 ft | 442 kts | 165° |
| 2026-04-30 21:53 | 45.66062 | 3.57820 | 37222 ft | 444 kts | 165° |
| 2026-04-30 21:54 | 45.60138 | 3.60373 | 37231 ft | 444 kts | 165° |
| 2026-04-30 21:54 | 45.54214 | 3.62897 | 37235 ft | 444 kts | 165° |
| 2026-04-30 21:55 | 45.48286 | 3.65416 | 37235 ft | 445 kts | 165° |
| 2026-04-30 21:55 | 45.42349 | 3.67950 | 37240 ft | 445 kts | 165° |
| 2026-04-30 21:56 | 45.36413 | 3.70480 | 37244 ft | 445 kts | 165° |
| 2026-04-30 21:56 | 45.30483 | 3.73016 | 37237 ft | 446 kts | 163° |
| 2026-04-30 21:57 | 45.27630 | 3.74789 | 37236 ft | 450 kts | 152° |
| 2026-04-30 21:57 | 45.25087 | 3.77394 | 37245 ft | 453 kts | 139° |
| 2026-04-30 21:57 | 45.23005 | 3.80765 | 37245 ft | 457 kts | 127° |
| 2026-04-30 21:57 | 45.21268 | 3.84537 | 37245 ft | 457 kts | 123° |
| 2026-04-30 21:58 | 45.17906 | 3.92152 | 37251 ft | 459 kts | 124° |
| 2026-04-30 21:58 | 45.14451 | 3.99773 | 37256 ft | 459 kts | 124° |
| 2026-04-30 21:59 | 45.10971 | 4.07364 | 37248 ft | 460 kts | 124° |
| 2026-04-30 22:00 | 45.05729 | 4.18743 | 37262 ft | 460 kts | 124° |
| 2026-04-30 22:00 | 44.99815 | 4.29401 | 37257 ft | 460 kts | 134° |
| 2026-04-30 22:01 | 44.95468 | 4.36040 | 37261 ft | 460 kts | 134° |
| 2026-04-30 22:01 | 44.91136 | 4.42696 | 37258 ft | 460 kts | 134° |
| 2026-04-30 22:02 | 44.86802 | 4.49353 | 37261 ft | 461 kts | 134° |
| 2026-04-30 22:02 | 44.82454 | 4.56003 | 37251 ft | 461 kts | 135° |
| 2026-04-30 22:03 | 44.78082 | 4.62644 | 37243 ft | 463 kts | 134° |
| 2026-04-30 22:03 | 44.73698 | 4.69296 | 37250 ft | 464 kts | 134° |
| 2026-04-30 22:04 | 44.69314 | 4.75948 | 37254 ft | 464 kts | 134° |
| 2026-04-30 22:04 | 44.64963 | 4.82547 | 36807 ft | 460 kts | 134° |
| 2026-04-30 22:05 | 44.62821 | 4.85901 | 36524 ft | 463 kts | 133° |
| 2026-04-30 22:05 | 44.60696 | 4.89300 | 36265 ft | 463 kts | 133° |
| 2026-04-30 22:05 | 44.58569 | 4.92702 | 36013 ft | 464 kts | 133° |
| 2026-04-30 22:05 | 44.56434 | 4.96099 | 35764 ft | 465 kts | 133° |
| 2026-04-30 22:06 | 44.54299 | 4.99508 | 35513 ft | 467 kts | 132° |
| 2026-04-30 22:06 | 44.50020 | 5.06328 | 34523 ft | 465 kts | 133° |
| 2026-04-30 22:06 | 44.47876 | 5.09731 | 33914 ft | 467 kts | 132° |
| 2026-04-30 22:07 | 44.45719 | 5.13152 | 33531 ft | 469 kts | 132° |
| 2026-04-30 22:07 | 44.43560 | 5.16583 | 33233 ft | 470 kts | 132° |
| 2026-04-30 22:07 | 44.41394 | 5.20015 | 32953 ft | 470 kts | 132° |
| 2026-04-30 22:07 | 44.39222 | 5.23444 | 32690 ft | 470 kts | 132° |
| 2026-04-30 22:08 | 44.36985 | 5.26753 | 32236 ft | 467 kts | 139° |
| 2026-04-30 22:08 | 44.34474 | 5.29631 | 31628 ft | 464 kts | 143° |
| 2026-04-30 22:08 | 44.31936 | 5.32383 | 31053 ft | 461 kts | 143° |
| 2026-04-30 22:08 | 44.29411 | 5.35110 | 30504 ft | 457 kts | 143° |
| 2026-04-30 22:09 | 44.26907 | 5.37826 | 29895 ft | 454 kts | 143° |
| 2026-04-30 22:09 | 44.24422 | 5.40524 | 29293 ft | 450 kts | 143° |
| 2026-04-30 22:09 | 44.21966 | 5.43188 | 28737 ft | 445 kts | 143° |
| 2026-04-30 22:09 | 44.19535 | 5.45826 | 28206 ft | 440 kts | 143° |
| 2026-04-30 22:10 | 44.17127 | 5.48433 | 27692 ft | 435 kts | 143° |
| 2026-04-30 22:10 | 44.14757 | 5.51002 | 27186 ft | 430 kts | 142° |
| 2026-04-30 22:10 | 44.12411 | 5.53549 | 26689 ft | 425 kts | 142° |
| 2026-04-30 22:10 | 44.10093 | 5.56063 | 26199 ft | 420 kts | 142° |
| 2026-04-30 22:11 | 44.05523 | 5.61007 | 25234 ft | 412 kts | 142° |
| 2026-04-30 22:11 | 44.03267 | 5.63443 | 24756 ft | 408 kts | 142° |
| 2026-04-30 22:11 | 44.01034 | 5.65852 | 24286 ft | 405 kts | 142° |
| 2026-04-30 22:12 | 43.98820 | 5.68237 | 23830 ft | 402 kts | 142° |
| 2026-04-30 22:12 | 43.96615 | 5.70612 | 23271 ft | 399 kts | 142° |
| 2026-04-30 22:12 | 43.94431 | 5.72959 | 22764 ft | 395 kts | 142° |
| 2026-04-30 22:12 | 43.92267 | 5.75280 | 22289 ft | 391 kts | 142° |
| 2026-04-30 22:13 | 43.90128 | 5.77578 | 21828 ft | 387 kts | 142° |
| 2026-04-30 22:13 | 43.88006 | 5.79853 | 21378 ft | 384 kts | 142° |
| 2026-04-30 22:13 | 43.85905 | 5.82102 | 20932 ft | 380 kts | 142° |
| 2026-04-30 22:13 | 43.83822 | 5.84324 | 20492 ft | 376 kts | 142° |
| 2026-04-30 22:14 | 43.81756 | 5.86531 | 20055 ft | 373 kts | 142° |
| 2026-04-30 22:14 | 43.79707 | 5.88715 | 19629 ft | 371 kts | 142° |
| 2026-04-30 22:14 | 43.77666 | 5.90893 | 19201 ft | 369 kts | 142° |
| 2026-04-30 22:14 | 43.75632 | 5.93060 | 18779 ft | 369 kts | 142° |
| 2026-04-30 22:15 | 43.73598 | 5.95222 | 18327 ft | 369 kts | 142° |
| 2026-04-30 22:15 | 43.71562 | 5.97386 | 17854 ft | 369 kts | 142° |
| 2026-04-30 22:15 | 43.69524 | 5.99550 | 17411 ft | 369 kts | 142° |
| 2026-04-30 22:15 | 43.67490 | 6.01707 | 16956 ft | 368 kts | 142° |
| 2026-04-30 22:16 | 43.65460 | 6.03858 | 16534 ft | 367 kts | 142° |
| 2026-04-30 22:16 | 43.63460 | 6.05974 | 16115 ft | 366 kts | 142° |
| 2026-04-30 22:17 | 43.58471 | 6.13636 | 14845 ft | 361 kts | 111° |
| 2026-04-30 22:17 | 43.57603 | 6.16882 | 14436 ft | 361 kts | 109° |
| 2026-04-30 22:17 | 43.55894 | 6.23371 | 13554 ft | 359 kts | 110° |
| 2026-04-30 22:18 | 43.55020 | 6.26593 | 13111 ft | 358 kts | 110° |
| 2026-04-30 22:18 | 43.53561 | 6.31908 | 12413 ft | 355 kts | 110° |
| 2026-04-30 22:19 | 43.51809 | 6.38225 | 11590 ft | 351 kts | 110° |
| 2026-04-30 22:19 | 43.50937 | 6.41364 | 11211 ft | 348 kts | 110° |
| 2026-04-30 22:19 | 43.48296 | 6.46600 | 10768 ft | 324 kts | 134° |
| 2026-04-30 22:20 | 43.46748 | 6.48765 | 10628 ft | 311 kts | 134° |
| 2026-04-30 22:20 | 43.43825 | 6.52898 | 9984 ft | 297 kts | 133° |
| 2026-04-30 22:20 | 43.42394 | 6.54945 | 9422 ft | 296 kts | 132° |
| 2026-04-30 22:21 | 43.40977 | 6.56976 | 8972 ft | 291 kts | 132° |
| 2026-04-30 22:21 | 43.39600 | 6.58974 | 8545 ft | 284 kts | 128° |
| 2026-04-30 22:21 | 43.38580 | 6.61227 | 8202 ft | 274 kts | 107° |
| 2026-04-30 22:21 | 43.38290 | 6.63798 | 7565 ft | 274 kts | 89° |
| 2026-04-30 22:22 | 43.38319 | 6.66398 | 7168 ft | 268 kts | 88° |
| 2026-04-30 22:22 | 43.38356 | 6.68918 | 6995 ft | 259 kts | 88° |
| 2026-04-30 22:22 | 43.38380 | 6.71341 | 6875 ft | 248 kts | 88° |
| 2026-04-30 22:22 | 43.38394 | 6.73660 | 6763 ft | 237 kts | 88° |
| 2026-04-30 22:23 | 43.38411 | 6.75877 | 6654 ft | 226 kts | 88° |
| 2026-04-30 22:23 | 43.38428 | 6.78002 | 6440 ft | 220 kts | 88° |
| 2026-04-30 22:23 | 43.38440 | 6.80088 | 6114 ft | 217 kts | 89° |
| 2026-04-30 22:23 | 43.38478 | 6.82163 | 5774 ft | 216 kts | 83° |
| 2026-04-30 22:24 | 43.38872 | 6.84126 | 5498 ft | 213 kts | 64° |
| 2026-04-30 22:24 | 43.39730 | 6.85742 | 5275 ft | 206 kts | 46° |
| 2026-04-30 22:24 | 43.40735 | 6.87072 | 5144 ft | 195 kts | 45° |
| 2026-04-30 22:24 | 43.41692 | 6.88323 | 4945 ft | 186 kts | 46° |
| 2026-04-30 22:25 | 43.42626 | 6.89561 | 4746 ft | 187 kts | 47° |
| 2026-04-30 22:25 | 43.43556 | 6.90822 | 4610 ft | 187 kts | 47° |
| 2026-04-30 22:25 | 43.44480 | 6.92086 | 4643 ft | 188 kts | 47° |
| 2026-04-30 22:25 | 43.45426 | 6.93322 | 4575 ft | 187 kts | 47° |
| 2026-04-30 22:26 | 43.47258 | 6.95809 | 4227 ft | 186 kts | 48° |
| 2026-04-30 22:26 | 43.48173 | 6.97060 | 4025 ft | 185 kts | 48° |
| 2026-04-30 22:26 | 43.49086 | 6.98309 | 3967 ft | 184 kts | 48° |
| 2026-04-30 22:27 | 43.49995 | 6.99554 | 3965 ft | 185 kts | 48° |
| 2026-04-30 22:27 | 43.50908 | 7.00804 | 3846 ft | 185 kts | 48° |
| 2026-04-30 22:27 | 43.52717 | 7.03282 | 3442 ft | 182 kts | 48° |
| 2026-04-30 22:28 | 43.54508 | 7.05738 | 2954 ft | 181 kts | 49° |
| 2026-04-30 22:28 | 43.55400 | 7.06962 | 2722 ft | 180 kts | 49° |
| 2026-04-30 22:29 | 43.57837 | 7.10306 | 2113 ft | 148 kts | 49° |
| 2026-04-30 22:29 | 43.58514 | 7.11234 | 1916 ft | 125 kts | 49° |
| 2026-04-30 22:30 | 43.60940 | 7.14563 | 1156 ft | 126 kts | 45° |
| 2026-04-30 22:31 | 43.62865 | 7.17206 | 726 ft | 130 kts | 42° |
| 2026-04-30 22:32 | 43.64765 | 7.19826 | 201 ft | 129 kts | 42° |
| 2026-04-30 22:32 | 43.65988 | 7.21513 | 26 ft | 105 kts | 45° |
| 2026-04-30 22:33 | 43.66508 | 7.22087 | 32 ft | 11 kts | 316° |
| 2026-04-30 22:33 | 43.66580 | 7.21989 | 26 ft | 9 kts | 315° |
| 2026-04-30 22:34 | 43.66598 | 7.21789 | 26 ft | 10 kts | 225° |
| 2026-04-30 22:35 | 43.66473 | 7.21617 | 26 ft | 15 kts | 225° |
| 2026-04-30 22:36 | 43.66134 | 7.21136 | 26 ft | 20 kts | 225° |
| 2026-04-30 22:36 | 43.66041 | 7.21008 | 26 ft | 16 kts | 225° |
| 2026-04-30 22:37 | 43.65840 | 7.20743 | 26 ft | 9 kts | 225° |
| 2026-04-30 22:37 | 43.65821 | 7.20695 | 26 ft | 3 kts | 269° |
| 2026-04-30 22:37 | 43.65859 | 7.20628 | 27 ft | 2 kts | 314° |
| 2026-04-30 22:38 | 43.65866 | 7.20618 | 27 ft | 0 kts | 313° |
| 2026-04-30 22:43 | 43.65866 | 7.20609 | 27 ft | 0 kts | 339° |